Christian W Cenac — WDF5379 — position and weather

sailwx.info

Track history (hours):
 
Tides and Currents Weather Stations Pressure Air Temp Water Temp Dewpoint Dewpoint Depression Visibility Wind Speed Wind Dir Waves Ship Positions

Christian W Cenac

Owner: CTCO Marine Services LLC, Houma, LA. More information available from US FCC via Universal Licensing System and Coast Guard Vessel Documentation Center.

Last reported at 2017-Dec-04 05:07 UTC. Time now 2017-Dec-16 07:08 UTC.
Position N 29°56' W 090°21'.
Warning: this ship's position is 12 days out of date.

Length 85 m; draft 2.1 m.

Type: Tug. MMSI: 367462490.

Date/timePositionNaut miles runAvg speedWind from/ knotsBaromVisibWave heightAir tempDewpointWater temp
2017-Dec-04 05:07N 29°56' W 090°21'1 7.9
2017-Dec-04 05:00N 29°56' W 090°22'4 7.2
2017-Dec-04 04:30N 29°60' W 090°25'  
2017-Dec-01 12:49N 29°34' W 090°28'2 4.9
2017-Dec-01 12:30N 29°34' W 090°30'2 4.8
2017-Dec-01 12:00N 29°34' W 090°33'2 4.7
2017-Dec-01 11:30N 29°35' W 090°35'2 4.2
2017-Dec-01 11:00N 29°35' W 090°38'3 5.1
2017-Dec-01 10:30N 29°36' W 090°40'2 4.1
2017-Dec-01 10:00N 29°37' W 090°42'2 3.7
2017-Dec-01 09:30N 29°35' W 090°43'2 4.1
2017-Dec-01 09:00N 29°34' W 090°45'3 4.8
2017-Dec-01 08:28N 29°32' W 090°47'64 4.4
2017-Nov-30 17:53N 29°50' W 091°58'2 4.0
2017-Nov-30 17:30N 29°50' W 092°00'2 4.6
2017-Nov-30 17:00N 29°49' W 092°03'2 4.4
2017-Nov-30 16:30N 29°48' W 092°05'2 4.4
2017-Nov-30 16:00N 29°47' W 092°07'2 4.7
2017-Nov-30 15:30N 29°47' W 092°10'2 3.9
2017-Nov-30 15:00N 29°47' W 092°12'1 2.2
2017-Nov-30 14:30N 29°47' W 092°13'0 0.0
2017-Nov-30 14:00N 29°47' W 092°13'0 0.0
2017-Nov-30 13:30N 29°47' W 092°13'0 0.0
2017-Nov-30 13:00N 29°47' W 092°13'0 0.0
2017-Nov-30 12:30N 29°47' W 092°13'0 0.0
2017-Nov-30 12:00N 29°47' W 092°13'0 0.0
2017-Nov-30 11:30N 29°47' W 092°13'0 0.0
2017-Nov-30 11:00N 29°47' W 092°13'0 0.0
2017-Nov-30 10:30N 29°47' W 092°13'0 0.0
2017-Nov-30 10:00N 29°47' W 092°13'0 0.0
2017-Nov-30 09:30N 29°47' W 092°13'0 0.6
2017-Nov-30 09:00N 29°48' W 092°14'0 0.5
2017-Nov-30 08:30N 29°48' W 092°14'0 0.1
2017-Nov-30 08:00N 29°48' W 092°14'0 0.0
2017-Nov-30 07:30N 29°48' W 092°14'0 0.0
2017-Nov-30 07:00N 29°48' W 092°14'0 0.1
2017-Nov-30 06:30N 29°48' W 092°14'0 0.0
2017-Nov-30 06:00N 29°48' W 092°14'0 0.9
2017-Nov-30 05:30N 29°48' W 092°14'2 3.5
2017-Nov-30 05:00N 29°49' W 092°16'2 4.5
2017-Nov-30 04:30N 29°50' W 092°18'3 4.7
2017-Nov-30 03:55N 29°51' W 092°21'40 4.0
2017-Nov-29 17:44N 29°56' W 093°07'1 4.6
2017-Nov-29 17:30N 29°56' W 093°09'2 4.6
2017-Nov-29 17:00N 29°57' W 093°11'2 5.0
2017-Nov-29 16:30N 29°59' W 093°13'2 3.1
2017-Nov-29 16:00N 30°01' W 093°14'2 3.1
2017-Nov-29 15:30N 30°02' W 093°15'1 2.0
2017-Nov-29 15:00N 30°02' W 093°16'1 2.5
2017-Nov-29 14:30N 30°04' W 093°16'2 3.4
2017-Nov-29 14:00N 30°05' W 093°17'1 1.2
2017-Nov-29 13:30N 30°05' W 093°18'1 1.7
2017-Nov-29 13:00N 30°06' W 093°18'0 0.0
2017-Nov-29 12:30N 30°06' W 093°18'0 0.0
2017-Nov-29 12:00N 30°06' W 093°18'0 0.2
2017-Nov-29 11:30N 30°06' W 093°18'1 2.6
2017-Nov-29 11:00N 30°05' W 093°20'2 3.0
2017-Nov-29 10:30N 30°04' W 093°21'2 3.1
2017-Nov-29 10:00N 30°04' W 093°22'2 3.8
2017-Nov-29 09:29N 30°04' W 093°25'2 5.0
2017-Nov-29 09:00N 30°04' W 093°27'82 4.5
2017-Nov-28 14:50N 29°33' W 094°54'2 5.9
2017-Nov-28 14:30N 29°34' W 094°56'3 5.7
2017-Nov-28 14:00N 29°37' W 094°58'3 5.1
2017-Nov-28 13:30N 29°37' W 095°00'1 1.8
2017-Nov-28 13:00N 29°37' W 095°02'0 0.0
2017-Nov-28 12:30N 29°37' W 095°02'0 0.0
2017-Nov-28 12:00N 29°37' W 095°02'0 0.0
2017-Nov-28 11:30N 29°37' W 095°02'0 0.0
2017-Nov-28 11:00N 29°37' W 095°02'0 0.0
2017-Nov-28 10:30N 29°37' W 095°02'0 0.0
2017-Nov-28 10:00N 29°37' W 095°02'0 0.0
2017-Nov-28 09:30N 29°37' W 095°02'0 0.0
2017-Nov-28 09:00N 29°37' W 095°02'0 0.0
2017-Nov-28 08:30N 29°37' W 095°02'0 0.0
2017-Nov-28 08:00N 29°37' W 095°02'0 0.0
2017-Nov-28 07:30N 29°37' W 095°02'0 0.0
2017-Nov-28 07:00N 29°37' W 095°02'0 0.0
2017-Nov-28 06:30N 29°37' W 095°02'0 0.0
2017-Nov-28 06:00N 29°37' W 095°02'0 0.0
2017-Nov-28 05:30N 29°37' W 095°02'0 0.0
2017-Nov-28 04:30N 29°37' W 095°02'0 0.0
2017-Nov-28 04:00N 29°37' W 095°02'0 0.0
2017-Nov-28 03:30N 29°37' W 095°02'0 0.0
2017-Nov-28 03:00N 29°37' W 095°02'0 0.0
2017-Nov-28 02:30N 29°37' W 095°02'0 0.0
2017-Nov-28 02:00N 29°37' W 095°02'0 0.0
2017-Nov-28 01:30N 29°37' W 095°02'0 0.1
2017-Nov-28 01:00N 29°37' W 095°01'0 0.8
2017-Nov-28 00:30N 29°37' W 095°01'3 5.9
2017-Nov-27 23:59N 29°37' W 094°58'3 6.6
2017-Nov-27 23:30N 29°40' W 094°59'3 6.0
2017-Nov-27 23:00N 29°42' W 095°01'  
Track history (hours):
 
Tides and Currents Weather Stations Pressure Air Temp Water Temp Dewpoint Dewpoint Depression Visibility Wind Speed Wind Dir Waves Ship Positions

Christian W Cenac

Owner: CTCO Marine Services LLC, Houma, LA. More information available from US FCC via Universal Licensing System and Coast Guard Vessel Documentation Center.

Last reported at 2017-Dec-04 05:07 UTC. Time now 2017-Dec-16 07:08 UTC.
Position N 29°56' W 090°21'.
Warning: this ship's position is 12 days out of date.

Length 85 m; draft 2.1 m.

Type: Tug. MMSI: 367462490.

Date/timePositionNaut miles runAvg speedWind from/ knotsBaromVisibWave heightAir tempDewpointWater temp
2017-Dec-04 05:07N 29°56' W 090°21'1 7.9
2017-Dec-04 05:00N 29°56' W 090°22'4 7.2
2017-Dec-04 04:30N 29°60' W 090°25'  
2017-Dec-01 12:49N 29°34' W 090°28'2 4.9
2017-Dec-01 12:30N 29°34' W 090°30'2 4.8
2017-Dec-01 12:00N 29°34' W 090°33'2 4.7
2017-Dec-01 11:30N 29°35' W 090°35'2 4.2
2017-Dec-01 11:00N 29°35' W 090°38'3 5.1
2017-Dec-01 10:30N 29°36' W 090°40'2 4.1
2017-Dec-01 10:00N 29°37' W 090°42'2 3.7
2017-Dec-01 09:30N 29°35' W 090°43'2 4.1
2017-Dec-01 09:00N 29°34' W 090°45'3 4.8
2017-Dec-01 08:28N 29°32' W 090°47'64 4.4
2017-Nov-30 17:53N 29°50' W 091°58'2 4.0
2017-Nov-30 17:30N 29°50' W 092°00'2 4.6
2017-Nov-30 17:00N 29°49' W 092°03'2 4.4
2017-Nov-30 16:30N 29°48' W 092°05'2 4.4
2017-Nov-30 16:00N 29°47' W 092°07'2 4.7
2017-Nov-30 15:30N 29°47' W 092°10'2 3.9
2017-Nov-30 15:00N 29°47' W 092°12'1 2.2
2017-Nov-30 14:30N 29°47' W 092°13'0 0.0
2017-Nov-30 14:00N 29°47' W 092°13'0 0.0
2017-Nov-30 13:30N 29°47' W 092°13'0 0.0
2017-Nov-30 13:00N 29°47' W 092°13'0 0.0
2017-Nov-30 12:30N 29°47' W 092°13'0 0.0
2017-Nov-30 12:00N 29°47' W 092°13'0 0.0
2017-Nov-30 11:30N 29°47' W 092°13'0 0.0
2017-Nov-30 11:00N 29°47' W 092°13'0 0.0
2017-Nov-30 10:30N 29°47' W 092°13'0 0.0
2017-Nov-30 10:00N 29°47' W 092°13'0 0.0
2017-Nov-30 09:30N 29°47' W 092°13'0 0.6
2017-Nov-30 09:00N 29°48' W 092°14'0 0.5
2017-Nov-30 08:30N 29°48' W 092°14'0 0.1
2017-Nov-30 08:00N 29°48' W 092°14'0 0.0
2017-Nov-30 07:30N 29°48' W 092°14'0 0.0
2017-Nov-30 07:00N 29°48' W 092°14'0 0.1
2017-Nov-30 06:30N 29°48' W 092°14'0 0.0
2017-Nov-30 06:00N 29°48' W 092°14'0 0.9
2017-Nov-30 05:30N 29°48' W 092°14'2 3.5
2017-Nov-30 05:00N 29°49' W 092°16'2 4.5
2017-Nov-30 04:30N 29°50' W 092°18'3 4.7
2017-Nov-30 03:55N 29°51' W 092°21'40 4.0
2017-Nov-29 17:44N 29°56' W 093°07'1 4.6
2017-Nov-29 17:30N 29°56' W 093°09'2 4.6
2017-Nov-29 17:00N 29°57' W 093°11'2 5.0
2017-Nov-29 16:30N 29°59' W 093°13'2 3.1
2017-Nov-29 16:00N 30°01' W 093°14'2 3.1
2017-Nov-29 15:30N 30°02' W 093°15'1 2.0
2017-Nov-29 15:00N 30°02' W 093°16'1 2.5
2017-Nov-29 14:30N 30°04' W 093°16'2 3.4
2017-Nov-29 14:00N 30°05' W 093°17'1 1.2
2017-Nov-29 13:30N 30°05' W 093°18'1 1.7
2017-Nov-29 13:00N 30°06' W 093°18'0 0.0
2017-Nov-29 12:30N 30°06' W 093°18'0 0.0
2017-Nov-29 12:00N 30°06' W 093°18'0 0.2
2017-Nov-29 11:30N 30°06' W 093°18'1 2.6
2017-Nov-29 11:00N 30°05' W 093°20'2 3.0
2017-Nov-29 10:30N 30°04' W 093°21'2 3.1
2017-Nov-29 10:00N 30°04' W 093°22'2 3.8
2017-Nov-29 09:29N 30°04' W 093°25'2 5.0
2017-Nov-29 09:00N 30°04' W 093°27'82 4.5
2017-Nov-28 14:50N 29°33' W 094°54'2 5.9
2017-Nov-28 14:30N 29°34' W 094°56'3 5.7
2017-Nov-28 14:00N 29°37' W 094°58'3 5.1
2017-Nov-28 13:30N 29°37' W 095°00'1 1.8
2017-Nov-28 13:00N 29°37' W 095°02'0 0.0
2017-Nov-28 12:30N 29°37' W 095°02'0 0.0
2017-Nov-28 12:00N 29°37' W 095°02'0 0.0
2017-Nov-28 11:30N 29°37' W 095°02'0 0.0
2017-Nov-28 11:00N 29°37' W 095°02'0 0.0
2017-Nov-28 10:30N 29°37' W 095°02'0 0.0
2017-Nov-28 10:00N 29°37' W 095°02'0 0.0
2017-Nov-28 09:30N 29°37' W 095°02'0 0.0
2017-Nov-28 09:00N 29°37' W 095°02'0 0.0
2017-Nov-28 08:30N 29°37' W 095°02'0 0.0
2017-Nov-28 08:00N 29°37' W 095°02'0 0.0
2017-Nov-28 07:30N 29°37' W 095°02'0 0.0
2017-Nov-28 07:00N 29°37' W 095°02'0 0.0
2017-Nov-28 06:30N 29°37' W 095°02'0 0.0
2017-Nov-28 06:00N 29°37' W 095°02'0 0.0
2017-Nov-28 05:30N 29°37' W 095°02'0 0.0
2017-Nov-28 04:30N 29°37' W 095°02'0 0.0
2017-Nov-28 04:00N 29°37' W 095°02'0 0.0
2017-Nov-28 03:30N 29°37' W 095°02'0 0.0
2017-Nov-28 03:00N 29°37' W 095°02'0 0.0
2017-Nov-28 02:30N 29°37' W 095°02'0 0.0
2017-Nov-28 02:00N 29°37' W 095°02'0 0.0
2017-Nov-28 01:30N 29°37' W 095°02'0 0.1
2017-Nov-28 01:00N 29°37' W 095°01'0 0.8
2017-Nov-28 00:30N 29°37' W 095°01'3 5.9
2017-Nov-27 23:59N 29°37' W 094°58'3 6.6
2017-Nov-27 23:30N 29°40' W 094°59'3 6.0
2017-Nov-27 23:00N 29°42' W 095°01'  

Dump ship's entire track history